sensor_id;sensor_type;location;lat;lon;timestamp;temperature;humidity
12682;DHT22;6405;59.208;18.216;2022-08-05T00:02:13;17.90;99.90
12682;DHT22;6405;59.208;18.216;2022-08-05T00:04:40;17.80;99.90
12682;DHT22;6405;59.208;18.216;2022-08-05T00:07:06;17.80;99.90
12682;DHT22;6405;59.208;18.216;2022-08-05T00:09:32;17.70;99.90
12682;DHT22;6405;59.208;18.216;2022-08-05T00:12:00;17.70;99.90
12682;DHT22;6405;59.208;18.216;2022-08-05T00:14:27;17.70;99.90
12682;DHT22;6405;59.208;18.216;2022-08-05T00:16:54;17.70;99.90
12682;DHT22;6405;59.208;18.216;2022-08-05T00:19:21;17.70;99.90
12682;DHT22;6405;59.208;18.216;2022-08-05T00:21:48;17.60;99.90
12682;DHT22;6405;59.208;18.216;2022-08-05T00:24:16;17.60;99.90
12682;DHT22;6405;59.208;18.216;2022-08-05T00:26:43;17.60;99.90
12682;DHT22;6405;59.208;18.216;2022-08-05T00:29:09;17.60;99.90
12682;DHT22;6405;59.208;18.216;2022-08-05T00:31:35;17.60;99.90
12682;DHT22;6405;59.208;18.216;2022-08-05T00:34:03;17.60;99.90
12682;DHT22;6405;59.208;18.216;2022-08-05T00:36:31;17.50;99.90
12682;DHT22;6405;59.208;18.216;2022-08-05T00:38:59;17.60;99.90
12682;DHT22;6405;59.208;18.216;2022-08-05T00:41:33;17.60;99.90
12682;DHT22;6405;59.208;18.216;2022-08-05T00:44:00;17.60;99.90
12682;DHT22;6405;59.208;18.216;2022-08-05T00:46:28;17.60;99.90
12682;DHT22;6405;59.208;18.216;2022-08-05T00:48:53;17.60;99.90
12682;DHT22;6405;59.208;18.216;2022-08-05T00:51:21;17.70;99.90
12682;DHT22;6405;59.208;18.216;2022-08-05T00:53:49;17.70;99.90
12682;DHT22;6405;59.208;18.216;2022-08-05T00:56:16;17.70;99.90
12682;DHT22;6405;59.208;18.216;2022-08-05T00:58:42;17.80;99.90
12682;DHT22;6405;59.208;18.216;2022-08-05T01:01:11;17.90;99.90
12682;DHT22;6405;59.208;18.216;2022-08-05T01:03:38;17.80;99.90
12682;DHT22;6405;59.208;18.216;2022-08-05T01:06:07;17.90;99.90
12682;DHT22;6405;59.208;18.216;2022-08-05T01:08:34;17.90;99.90
12682;DHT22;6405;59.208;18.216;2022-08-05T01:11:15;17.90;99.90
12682;DHT22;6405;59.208;18.216;2022-08-05T01:14:02;17.90;99.90
12682;DHT22;6405;59.208;18.216;2022-08-05T01:16:46;18.00;99.90
12682;DHT22;6405;59.208;18.216;2022-08-05T01:25:36;18.10;99.90
12682;DHT22;6405;59.208;18.216;2022-08-05T01:28:17;18.10;99.90
12682;DHT22;6405;59.208;18.216;2022-08-05T01:30:58;18.20;99.90
12682;DHT22;6405;59.208;18.216;2022-08-05T01:33:32;18.20;99.90
12682;DHT22;6405;59.208;18.216;2022-08-05T01:36:01;18.20;99.90
12682;DHT22;6405;59.208;18.216;2022-08-05T01:38:29;18.20;99.90
12682;DHT22;6405;59.208;18.216;2022-08-05T01:40:58;18.20;99.90
12682;DHT22;6405;59.208;18.216;2022-08-05T01:43:26;18.20;99.90
12682;DHT22;6405;59.208;18.216;2022-08-05T01:45:55;18.30;99.90
12682;DHT22;6405;59.208;18.216;2022-08-05T01:48:28;18.20;99.90
12682;DHT22;6405;59.208;18.216;2022-08-05T01:50:58;18.30;99.90
12682;DHT22;6405;59.208;18.216;2022-08-05T01:53:25;18.20;99.90
12682;DHT22;6405;59.208;18.216;2022-08-05T01:55:57;18.30;99.90
12682;DHT22;6405;59.208;18.216;2022-08-05T01:58:26;18.30;99.90
12682;DHT22;6405;59.208;18.216;2022-08-05T02:00:55;18.30;99.90
12682;DHT22;6405;59.208;18.216;2022-08-05T02:03:36;18.30;99.90
12682;DHT22;6405;59.208;18.216;2022-08-05T02:06:05;18.20;99.90
12682;DHT22;6405;59.208;18.216;2022-08-05T02:08:33;18.20;99.90
12682;DHT22;6405;59.208;18.216;2022-08-05T02:11:12;18.20;99.90
12682;DHT22;6405;59.208;18.216;2022-08-05T02:13:45;18.20;99.90
12682;DHT22;6405;59.208;18.216;2022-08-05T02:16:22;18.20;99.90
12682;DHT22;6405;59.208;18.216;2022-08-05T02:19:04;18.20;99.90
12682;DHT22;6405;59.208;18.216;2022-08-05T02:21:39;18.20;99.90
12682;DHT22;6405;59.208;18.216;2022-08-05T02:24:11;18.20;99.90
12682;DHT22;6405;59.208;18.216;2022-08-05T02:26:48;18.20;99.90
12682;DHT22;6405;59.208;18.216;2022-08-05T02:29:20;18.20;99.90
12682;DHT22;6405;59.208;18.216;2022-08-05T02:31:47;18.20;99.90
12682;DHT22;6405;59.208;18.216;2022-08-05T02:34:14;18.20;99.90
12682;DHT22;6405;59.208;18.216;2022-08-05T02:36:50;18.20;99.90
12682;DHT22;6405;59.208;18.216;2022-08-05T02:39:21;18.20;99.90
12682;DHT22;6405;59.208;18.216;2022-08-05T02:41:49;18.20;99.90
12682;DHT22;6405;59.208;18.216;2022-08-05T02:44:18;18.20;99.90
12682;DHT22;6405;59.208;18.216;2022-08-05T02:46:46;18.20;99.90
12682;DHT22;6405;59.208;18.216;2022-08-05T02:49:15;18.30;99.90
12682;DHT22;6405;59.208;18.216;2022-08-05T02:51:44;18.30;99.90
12682;DHT22;6405;59.208;18.216;2022-08-05T02:54:12;18.30;99.90
12682;DHT22;6405;59.208;18.216;2022-08-05T02:56:43;18.30;99.90
12682;DHT22;6405;59.208;18.216;2022-08-05T02:59:11;18.30;99.90
12682;DHT22;6405;59.208;18.216;2022-08-05T03:01:41;18.30;99.90
12682;DHT22;6405;59.208;18.216;2022-08-05T03:04:13;18.40;99.90
12682;DHT22;6405;59.208;18.216;2022-08-05T03:06:40;18.40;99.90
12682;DHT22;6405;59.208;18.216;2022-08-05T03:09:11;18.50;99.90
12682;DHT22;6405;59.208;18.216;2022-08-05T03:11:42;18.50;99.90
12682;DHT22;6405;59.208;18.216;2022-08-05T03:14:10;18.50;99.90
12682;DHT22;6405;59.208;18.216;2022-08-05T03:16:36;18.50;99.90
12682;DHT22;6405;59.208;18.216;2022-08-05T03:19:04;18.60;99.90
12682;DHT22;6405;59.208;18.216;2022-08-05T03:21:31;18.60;99.90
12682;DHT22;6405;59.208;18.216;2022-08-05T03:23:58;18.70;99.90
12682;DHT22;6405;59.208;18.216;2022-08-05T03:26:26;18.70;99.90
12682;DHT22;6405;59.208;18.216;2022-08-05T03:28:52;18.70;99.90
12682;DHT22;6405;59.208;18.216;2022-08-05T03:31:20;18.80;99.90
12682;DHT22;6405;59.208;18.216;2022-08-05T03:33:47;18.80;99.90
12682;DHT22;6405;59.208;18.216;2022-08-05T03:36:13;18.80;99.90
12682;DHT22;6405;59.208;18.216;2022-08-05T03:38:40;18.80;99.90
12682;DHT22;6405;59.208;18.216;2022-08-05T03:41:08;18.80;99.90
12682;DHT22;6405;59.208;18.216;2022-08-05T03:43:35;18.80;99.90
12682;DHT22;6405;59.208;18.216;2022-08-05T03:46:01;18.80;99.90
12682;DHT22;6405;59.208;18.216;2022-08-05T03:48:28;18.80;99.90
12682;DHT22;6405;59.208;18.216;2022-08-05T03:51:11;18.80;99.90
12682;DHT22;6405;59.208;18.216;2022-08-05T03:53:58;18.80;99.90
12682;DHT22;6405;59.208;18.216;2022-08-05T03:56:37;18.80;99.90
12682;DHT22;6405;59.208;18.216;2022-08-05T03:59:27;18.80;99.90
12682;DHT22;6405;59.208;18.216;2022-08-05T04:01:55;18.70;99.90
12682;DHT22;6405;59.208;18.216;2022-08-05T04:04:24;18.70;99.90
12682;DHT22;6405;59.208;18.216;2022-08-05T04:06:51;18.70;99.90
12682;DHT22;6405;59.208;18.216;2022-08-05T04:09:18;18.70;99.90
12682;DHT22;6405;59.208;18.216;2022-08-05T04:11:44;18.70;99.90
12682;DHT22;6405;59.208;18.216;2022-08-05T04:14:11;18.60;99.90
12682;DHT22;6405;59.208;18.216;2022-08-05T04:16:38;18.60;99.90
12682;DHT22;6405;59.208;18.216;2022-08-05T04:19:05;18.60;99.90
12682;DHT22;6405;59.208;18.216;2022-08-05T04:21:31;18.60;99.90
12682;DHT22;6405;59.208;18.216;2022-08-05T04:23:57;18.60;99.90
12682;DHT22;6405;59.208;18.216;2022-08-05T04:26:27;18.60;99.90
12682;DHT22;6405;59.208;18.216;2022-08-05T04:28:53;18.60;99.90
12682;DHT22;6405;59.208;18.216;2022-08-05T04:31:20;18.60;99.90
12682;DHT22;6405;59.208;18.216;2022-08-05T04:33:47;18.60;99.90
12682;DHT22;6405;59.208;18.216;2022-08-05T04:36:13;18.60;99.90
12682;DHT22;6405;59.208;18.216;2022-08-05T04:38:42;18.50;99.90
12682;DHT22;6405;59.208;18.216;2022-08-05T04:41:08;18.50;99.90
12682;DHT22;6405;59.208;18.216;2022-08-05T04:43:36;18.50;99.90
12682;DHT22;6405;59.208;18.216;2022-08-05T04:46:04;18.50;99.90
12682;DHT22;6405;59.208;18.216;2022-08-05T04:48:31;18.50;99.90
12682;DHT22;6405;59.208;18.216;2022-08-05T04:50:56;18.50;99.90
12682;DHT22;6405;59.208;18.216;2022-08-05T04:53:22;18.50;99.90
12682;DHT22;6405;59.208;18.216;2022-08-05T04:55:48;18.50;99.90
12682;DHT22;6405;59.208;18.216;2022-08-05T04:58:16;18.50;99.90
12682;DHT22;6405;59.208;18.216;2022-08-05T05:00:44;18.50;99.90
12682;DHT22;6405;59.208;18.216;2022-08-05T05:03:11;18.50;99.90
12682;DHT22;6405;59.208;18.216;2022-08-05T05:05:37;18.50;99.90
12682;DHT22;6405;59.208;18.216;2022-08-05T05:08:06;18.60;99.90
12682;DHT22;6405;59.208;18.216;2022-08-05T05:10:41;18.60;99.90
12682;DHT22;6405;59.208;18.216;2022-08-05T05:13:12;18.60;99.90
12682;DHT22;6405;59.208;18.216;2022-08-05T05:15:41;18.70;99.90
12682;DHT22;6405;59.208;18.216;2022-08-05T05:18:07;18.80;99.90
12682;DHT22;6405;59.208;18.216;2022-08-05T05:20:35;18.90;99.90
12682;DHT22;6405;59.208;18.216;2022-08-05T05:23:03;19.10;99.90
12682;DHT22;6405;59.208;18.216;2022-08-05T05:25:31;19.30;99.90
12682;DHT22;6405;59.208;18.216;2022-08-05T05:27:58;19.40;99.90
12682;DHT22;6405;59.208;18.216;2022-08-05T05:30:25;19.60;99.90
12682;DHT22;6405;59.208;18.216;2022-08-05T05:32:53;19.70;99.90
12682;DHT22;6405;59.208;18.216;2022-08-05T05:35:20;19.80;99.90
12682;DHT22;6405;59.208;18.216;2022-08-05T05:37:49;20.00;99.90
12682;DHT22;6405;59.208;18.216;2022-08-05T05:40:18;20.10;99.90
12682;DHT22;6405;59.208;18.216;2022-08-05T05:42:47;20.30;99.90
12682;DHT22;6405;59.208;18.216;2022-08-05T05:45:14;20.50;99.90
12682;DHT22;6405;59.208;18.216;2022-08-05T05:47:42;20.70;99.90
12682;DHT22;6405;59.208;18.216;2022-08-05T05:50:12;20.70;99.90
12682;DHT22;6405;59.208;18.216;2022-08-05T05:52:39;20.70;99.90
12682;DHT22;6405;59.208;18.216;2022-08-05T05:55:09;20.80;99.90
12682;DHT22;6405;59.208;18.216;2022-08-05T05:57:38;20.80;99.90
12682;DHT22;6405;59.208;18.216;2022-08-05T06:00:05;20.70;99.90
12682;DHT22;6405;59.208;18.216;2022-08-05T06:02:32;20.70;99.90
12682;DHT22;6405;59.208;18.216;2022-08-05T06:04:58;20.70;99.90
12682;DHT22;6405;59.208;18.216;2022-08-05T06:07:24;20.60;99.90
12682;DHT22;6405;59.208;18.216;2022-08-05T06:09:51;20.60;99.90
12682;DHT22;6405;59.208;18.216;2022-08-05T06:12:18;20.60;99.90
12682;DHT22;6405;59.208;18.216;2022-08-05T06:14:44;20.60;99.90
12682;DHT22;6405;59.208;18.216;2022-08-05T06:17:11;20.60;99.90
12682;DHT22;6405;59.208;18.216;2022-08-05T06:19:37;20.60;99.90
12682;DHT22;6405;59.208;18.216;2022-08-05T06:22:03;20.60;99.90
12682;DHT22;6405;59.208;18.216;2022-08-05T06:24:29;20.50;99.90
12682;DHT22;6405;59.208;18.216;2022-08-05T06:26:56;20.60;99.90
12682;DHT22;6405;59.208;18.216;2022-08-05T06:29:24;20.70;99.90
12682;DHT22;6405;59.208;18.216;2022-08-05T06:31:52;20.60;99.90
12682;DHT22;6405;59.208;18.216;2022-08-05T06:34:18;20.60;99.90
12682;DHT22;6405;59.208;18.216;2022-08-05T06:36:44;20.60;99.90
12682;DHT22;6405;59.208;18.216;2022-08-05T06:39:10;20.70;99.90
12682;DHT22;6405;59.208;18.216;2022-08-05T06:41:36;20.70;99.90
12682;DHT22;6405;59.208;18.216;2022-08-05T06:44:04;20.70;99.90
12682;DHT22;6405;59.208;18.216;2022-08-05T06:46:29;20.80;99.90
12682;DHT22;6405;59.208;18.216;2022-08-05T06:48:56;20.90;99.90
12682;DHT22;6405;59.208;18.216;2022-08-05T06:51:22;21.00;99.90
12682;DHT22;6405;59.208;18.216;2022-08-05T06:53:50;21.10;99.90
12682;DHT22;6405;59.208;18.216;2022-08-05T06:56:17;21.10;99.90
12682;DHT22;6405;59.208;18.216;2022-08-05T06:58:44;21.20;99.90
12682;DHT22;6405;59.208;18.216;2022-08-05T07:01:12;21.30;99.90
12682;DHT22;6405;59.208;18.216;2022-08-05T07:03:39;21.40;99.90
12682;DHT22;6405;59.208;18.216;2022-08-05T07:06:06;21.50;99.90
12682;DHT22;6405;59.208;18.216;2022-08-05T07:08:34;21.60;99.90
12682;DHT22;6405;59.208;18.216;2022-08-05T07:11:00;21.60;99.90
12682;DHT22;6405;59.208;18.216;2022-08-05T07:13:26;21.60;99.90
12682;DHT22;6405;59.208;18.216;2022-08-05T07:16:12;21.60;99.90
12682;DHT22;6405;59.208;18.216;2022-08-05T07:18:57;21.70;99.90
12682;DHT22;6405;59.208;18.216;2022-08-05T07:21:25;21.70;99.90
12682;DHT22;6405;59.208;18.216;2022-08-05T07:23:51;21.80;99.90
12682;DHT22;6405;59.208;18.216;2022-08-05T07:26:17;21.90;99.90
12682;DHT22;6405;59.208;18.216;2022-08-05T07:28:44;22.00;99.90
12682;DHT22;6405;59.208;18.216;2022-08-05T07:31:11;22.00;99.90
12682;DHT22;6405;59.208;18.216;2022-08-05T07:33:37;22.10;99.90
12682;DHT22;6405;59.208;18.216;2022-08-05T07:36:04;22.10;99.90
12682;DHT22;6405;59.208;18.216;2022-08-05T07:38:31;22.10;99.90
12682;DHT22;6405;59.208;18.216;2022-08-05T07:40:57;22.20;99.90
12682;DHT22;6405;59.208;18.216;2022-08-05T07:43:24;22.30;99.90
12682;DHT22;6405;59.208;18.216;2022-08-05T07:45:51;22.50;99.90
12682;DHT22;6405;59.208;18.216;2022-08-05T07:48:17;22.70;99.90
12682;DHT22;6405;59.208;18.216;2022-08-05T07:50:43;22.90;99.90
12682;DHT22;6405;59.208;18.216;2022-08-05T07:53:11;23.10;99.90
12682;DHT22;6405;59.208;18.216;2022-08-05T07:55:38;23.20;99.90
12682;DHT22;6405;59.208;18.216;2022-08-05T07:58:05;23.20;99.90
12682;DHT22;6405;59.208;18.216;2022-08-05T08:00:32;23.20;99.90
12682;DHT22;6405;59.208;18.216;2022-08-05T08:02:59;23.20;99.90
12682;DHT22;6405;59.208;18.216;2022-08-05T08:05:26;23.10;99.90
12682;DHT22;6405;59.208;18.216;2022-08-05T08:07:53;23.10;99.90
12682;DHT22;6405;59.208;18.216;2022-08-05T08:10:22;23.10;99.90
12682;DHT22;6405;59.208;18.216;2022-08-05T08:12:49;23.10;99.90
12682;DHT22;6405;59.208;18.216;2022-08-05T08:15:16;23.30;99.90
12682;DHT22;6405;59.208;18.216;2022-08-05T08:17:44;23.30;99.90
12682;DHT22;6405;59.208;18.216;2022-08-05T08:20:11;23.60;99.90
12682;DHT22;6405;59.208;18.216;2022-08-05T08:22:38;23.90;99.90
12682;DHT22;6405;59.208;18.216;2022-08-05T08:25:06;24.10;99.90
12682;DHT22;6405;59.208;18.216;2022-08-05T08:27:33;24.30;99.90
12682;DHT22;6405;59.208;18.216;2022-08-05T08:29:59;24.50;99.90
12682;DHT22;6405;59.208;18.216;2022-08-05T08:32:26;24.80;99.90
12682;DHT22;6405;59.208;18.216;2022-08-05T08:34:53;25.00;99.90
12682;DHT22;6405;59.208;18.216;2022-08-05T08:37:19;25.30;99.90
12682;DHT22;6405;59.208;18.216;2022-08-05T08:39:46;25.40;99.90
12682;DHT22;6405;59.208;18.216;2022-08-05T08:42:13;25.20;99.90
12682;DHT22;6405;59.208;18.216;2022-08-05T08:44:41;25.30;99.90
12682;DHT22;6405;59.208;18.216;2022-08-05T08:47:07;25.20;99.90
12682;DHT22;6405;59.208;18.216;2022-08-05T08:49:35;25.30;99.90
12682;DHT22;6405;59.208;18.216;2022-08-05T08:52:11;25.50;99.90
12682;DHT22;6405;59.208;18.216;2022-08-05T08:54:39;25.50;99.90
12682;DHT22;6405;59.208;18.216;2022-08-05T08:57:06;25.60;99.90
12682;DHT22;6405;59.208;18.216;2022-08-05T08:59:34;25.60;99.90
12682;DHT22;6405;59.208;18.216;2022-08-05T09:02:04;25.70;99.90
12682;DHT22;6405;59.208;18.216;2022-08-05T09:04:35;25.80;99.90
12682;DHT22;6405;59.208;18.216;2022-08-05T09:07:05;26.00;99.90
12682;DHT22;6405;59.208;18.216;2022-08-05T09:09:34;26.10;99.90
12682;DHT22;6405;59.208;18.216;2022-08-05T09:12:07;26.00;99.90
12682;DHT22;6405;59.208;18.216;2022-08-05T09:14:35;26.00;99.90
12682;DHT22;6405;59.208;18.216;2022-08-05T09:17:03;26.20;99.90
12682;DHT22;6405;59.208;18.216;2022-08-05T09:19:30;26.20;99.90
12682;DHT22;6405;59.208;18.216;2022-08-05T09:21:56;26.30;99.90
12682;DHT22;6405;59.208;18.216;2022-08-05T09:24:22;26.30;99.90
12682;DHT22;6405;59.208;18.216;2022-08-05T09:26:50;26.30;99.90
12682;DHT22;6405;59.208;18.216;2022-08-05T09:29:17;26.40;99.90
12682;DHT22;6405;59.208;18.216;2022-08-05T09:31:43;26.20;99.90
12682;DHT22;6405;59.208;18.216;2022-08-05T09:34:54;26.10;99.90
12682;DHT22;6405;59.208;18.216;2022-08-05T09:37:23;25.90;99.90
12682;DHT22;6405;59.208;18.216;2022-08-05T09:39:51;25.90;99.90
12682;DHT22;6405;59.208;18.216;2022-08-05T09:42:20;25.80;99.90
12682;DHT22;6405;59.208;18.216;2022-08-05T09:44:49;25.90;99.90
12682;DHT22;6405;59.208;18.216;2022-08-05T09:47:19;26.10;99.90
12682;DHT22;6405;59.208;18.216;2022-08-05T09:49:51;26.10;99.90
12682;DHT22;6405;59.208;18.216;2022-08-05T09:52:20;26.10;99.90
12682;DHT22;6405;59.208;18.216;2022-08-05T09:55:06;26.10;99.90
12682;DHT22;6405;59.208;18.216;2022-08-05T09:57:36;26.30;99.90
12682;DHT22;6405;59.208;18.216;2022-08-05T10:00:11;26.10;99.90
12682;DHT22;6405;59.208;18.216;2022-08-05T10:02:49;26.20;99.90
12682;DHT22;6405;59.208;18.216;2022-08-05T10:05:22;26.20;99.90
12682;DHT22;6405;59.208;18.216;2022-08-05T10:07:54;26.30;99.90
12682;DHT22;6405;59.208;18.216;2022-08-05T10:10:26;26.40;99.90
12682;DHT22;6405;59.208;18.216;2022-08-05T10:12:56;26.40;99.90
12682;DHT22;6405;59.208;18.216;2022-08-05T10:15:33;26.60;99.90
12682;DHT22;6405;59.208;18.216;2022-08-05T10:18:11;26.70;99.90
12682;DHT22;6405;59.208;18.216;2022-08-05T10:20:44;26.80;99.90
12682;DHT22;6405;59.208;18.216;2022-08-05T10:23:26;27.10;99.90
12682;DHT22;6405;59.208;18.216;2022-08-05T10:25:54;26.90;99.90
12682;DHT22;6405;59.208;18.216;2022-08-05T10:28:21;26.60;99.90
12682;DHT22;6405;59.208;18.216;2022-08-05T10:30:49;26.40;99.90
12682;DHT22;6405;59.208;18.216;2022-08-05T10:33:17;26.30;99.90
12682;DHT22;6405;59.208;18.216;2022-08-05T10:35:44;26.00;99.90
12682;DHT22;6405;59.208;18.216;2022-08-05T10:38:12;25.90;99.90
12682;DHT22;6405;59.208;18.216;2022-08-05T10:41:00;25.80;99.90
12682;DHT22;6405;59.208;18.216;2022-08-05T10:46:13;26.30;99.90
12682;DHT22;6405;59.208;18.216;2022-08-05T10:48:45;26.40;99.90
12682;DHT22;6405;59.208;18.216;2022-08-05T10:51:16;26.30;99.90
12682;DHT22;6405;59.208;18.216;2022-08-05T10:56:27;26.20;99.90
12682;DHT22;6405;59.208;18.216;2022-08-05T11:01:38;25.70;99.90
12682;DHT22;6405;59.208;18.216;2022-08-05T11:04:09;25.40;99.90
12682;DHT22;6405;59.208;18.216;2022-08-05T11:07:04;25.30;99.90
12682;DHT22;6405;59.208;18.216;2022-08-05T11:15:15;25.20;99.90
12682;DHT22;6405;59.208;18.216;2022-08-05T11:17:43;25.20;99.90
12682;DHT22;6405;59.208;18.216;2022-08-05T11:28:53;25.40;99.90
12682;DHT22;6405;59.208;18.216;2022-08-05T11:31:23;25.40;99.90
12682;DHT22;6405;59.208;18.216;2022-08-05T11:33:55;25.20;99.90
12682;DHT22;6405;59.208;18.216;2022-08-05T11:36:46;24.90;99.90
12682;DHT22;6405;59.208;18.216;2022-08-05T11:39:15;24.70;99.90
12682;DHT22;6405;59.208;18.216;2022-08-05T11:41:50;24.50;99.90
12682;DHT22;6405;59.208;18.216;2022-08-05T11:44:19;24.50;99.90
12682;DHT22;6405;59.208;18.216;2022-08-05T11:46:51;24.30;99.90
12682;DHT22;6405;59.208;18.216;2022-08-05T11:49:20;24.20;99.90
12682;DHT22;6405;59.208;18.216;2022-08-05T11:51:50;24.30;99.90
12682;DHT22;6405;59.208;18.216;2022-08-05T11:54:28;24.30;99.90
12682;DHT22;6405;59.208;18.216;2022-08-05T11:56:55;24.40;99.90
12682;DHT22;6405;59.208;18.216;2022-08-05T11:59:28;24.10;99.90
12682;DHT22;6405;59.208;18.216;2022-08-05T12:02:06;24.00;99.90
12682;DHT22;6405;59.208;18.216;2022-08-05T12:07:09;23.50;99.90
12682;DHT22;6405;59.208;18.216;2022-08-05T12:09:40;23.30;99.90
12682;DHT22;6405;59.208;18.216;2022-08-05T12:12:07;23.00;99.90
12682;DHT22;6405;59.208;18.216;2022-08-05T12:14:42;22.50;99.90
12682;DHT22;6405;59.208;18.216;2022-08-05T12:17:11;22.10;99.90
12682;DHT22;6405;59.208;18.216;2022-08-05T12:19:43;21.80;99.90
12682;DHT22;6405;59.208;18.216;2022-08-05T12:22:13;21.60;99.90
12682;DHT22;6405;59.208;18.216;2022-08-05T12:24:49;21.60;99.90
12682;DHT22;6405;59.208;18.216;2022-08-05T12:27:28;21.40;99.90
12682;DHT22;6405;59.208;18.216;2022-08-05T12:30:15;21.40;99.90
12682;DHT22;6405;59.208;18.216;2022-08-05T12:32:44;21.20;99.90
12682;DHT22;6405;59.208;18.216;2022-08-05T12:35:12;21.10;99.90
12682;DHT22;6405;59.208;18.216;2022-08-05T12:37:42;21.00;99.90
12682;DHT22;6405;59.208;18.216;2022-08-05T12:40:11;20.90;99.90
12682;DHT22;6405;59.208;18.216;2022-08-05T12:42:38;20.90;99.90
12682;DHT22;6405;59.208;18.216;2022-08-05T12:45:09;20.80;99.90
12682;DHT22;6405;59.208;18.216;2022-08-05T12:47:37;20.70;99.90
12682;DHT22;6405;59.208;18.216;2022-08-05T12:50:14;20.70;99.90
12682;DHT22;6405;59.208;18.216;2022-08-05T12:52:41;20.80;99.90
12682;DHT22;6405;59.208;18.216;2022-08-05T12:55:18;20.80;99.90
12682;DHT22;6405;59.208;18.216;2022-08-05T12:57:45;21.00;99.90
12682;DHT22;6405;59.208;18.216;2022-08-05T13:00:23;21.00;99.90
12682;DHT22;6405;59.208;18.216;2022-08-05T13:02:53;21.10;99.90
12682;DHT22;6405;59.208;18.216;2022-08-05T13:05:23;21.10;99.90
12682;DHT22;6405;59.208;18.216;2022-08-05T13:07:49;21.10;99.90
12682;DHT22;6405;59.208;18.216;2022-08-05T13:10:17;21.00;99.90
12682;DHT22;6405;59.208;18.216;2022-08-05T13:12:44;21.00;99.90
12682;DHT22;6405;59.208;18.216;2022-08-05T13:15:12;21.00;99.90
12682;DHT22;6405;59.208;18.216;2022-08-05T13:17:39;21.10;99.90
12682;DHT22;6405;59.208;18.216;2022-08-05T13:20:09;21.30;99.90
12682;DHT22;6405;59.208;18.216;2022-08-05T13:22:38;21.30;99.90
12682;DHT22;6405;59.208;18.216;2022-08-05T13:25:07;21.40;99.90
12682;DHT22;6405;59.208;18.216;2022-08-05T13:27:38;21.50;99.90
12682;DHT22;6405;59.208;18.216;2022-08-05T13:30:11;21.60;99.90
12682;DHT22;6405;59.208;18.216;2022-08-05T13:32:38;21.70;99.90
12682;DHT22;6405;59.208;18.216;2022-08-05T13:35:06;21.80;99.90
12682;DHT22;6405;59.208;18.216;2022-08-05T13:37:32;21.90;99.90
12682;DHT22;6405;59.208;18.216;2022-08-05T13:39:59;21.90;99.90
12682;DHT22;6405;59.208;18.216;2022-08-05T13:42:26;21.90;99.90
12682;DHT22;6405;59.208;18.216;2022-08-05T13:44:54;21.90;99.90
12682;DHT22;6405;59.208;18.216;2022-08-05T13:47:21;21.80;99.90
12682;DHT22;6405;59.208;18.216;2022-08-05T13:49:49;21.80;99.90
12682;DHT22;6405;59.208;18.216;2022-08-05T13:52:22;21.70;99.90
12682;DHT22;6405;59.208;18.216;2022-08-05T13:54:49;21.70;99.90
12682;DHT22;6405;59.208;18.216;2022-08-05T13:57:16;21.70;99.90
12682;DHT22;6405;59.208;18.216;2022-08-05T13:59:43;21.70;99.90
12682;DHT22;6405;59.208;18.216;2022-08-05T14:02:10;21.60;99.90
12682;DHT22;6405;59.208;18.216;2022-08-05T14:04:41;21.50;99.90
12682;DHT22;6405;59.208;18.216;2022-08-05T14:07:37;21.40;99.90
12682;DHT22;6405;59.208;18.216;2022-08-05T14:10:08;21.30;99.90
12682;DHT22;6405;59.208;18.216;2022-08-05T14:12:35;21.20;99.90
12682;DHT22;6405;59.208;18.216;2022-08-05T14:15:03;21.20;99.90
12682;DHT22;6405;59.208;18.216;2022-08-05T14:17:29;21.00;99.90
12682;DHT22;6405;59.208;18.216;2022-08-05T14:19:56;20.90;99.90
12682;DHT22;6405;59.208;18.216;2022-08-05T14:22:22;20.80;99.90
12682;DHT22;6405;59.208;18.216;2022-08-05T14:24:49;20.70;99.90
12682;DHT22;6405;59.208;18.216;2022-08-05T14:27:17;20.70;99.90
12682;DHT22;6405;59.208;18.216;2022-08-05T14:29:44;20.50;99.90
12682;DHT22;6405;59.208;18.216;2022-08-05T14:32:10;20.40;99.90
12682;DHT22;6405;59.208;18.216;2022-08-05T14:34:38;20.30;99.90
12682;DHT22;6405;59.208;18.216;2022-08-05T14:37:06;20.20;99.90
12682;DHT22;6405;59.208;18.216;2022-08-05T14:39:34;20.10;99.90
12682;DHT22;6405;59.208;18.216;2022-08-05T14:42:02;20.00;99.90
12682;DHT22;6405;59.208;18.216;2022-08-05T14:44:29;19.90;99.90
12682;DHT22;6405;59.208;18.216;2022-08-05T14:46:57;19.80;99.90
12682;DHT22;6405;59.208;18.216;2022-08-05T14:49:25;19.70;99.90
12682;DHT22;6405;59.208;18.216;2022-08-05T14:51:53;19.60;99.90
12682;DHT22;6405;59.208;18.216;2022-08-05T14:54:19;19.60;99.90
12682;DHT22;6405;59.208;18.216;2022-08-05T14:56:47;19.60;99.90
12682;DHT22;6405;59.208;18.216;2022-08-05T14:59:14;19.60;99.90
12682;DHT22;6405;59.208;18.216;2022-08-05T15:01:41;19.60;99.90
12682;DHT22;6405;59.208;18.216;2022-08-05T15:04:07;19.50;99.90
12682;DHT22;6405;59.208;18.216;2022-08-05T15:06:35;19.50;99.90
12682;DHT22;6405;59.208;18.216;2022-08-05T15:09:01;19.50;99.90
12682;DHT22;6405;59.208;18.216;2022-08-05T15:11:27;19.40;99.90
12682;DHT22;6405;59.208;18.216;2022-08-05T15:13:55;19.40;99.90
12682;DHT22;6405;59.208;18.216;2022-08-05T15:16:22;19.40;99.90
12682;DHT22;6405;59.208;18.216;2022-08-05T15:18:49;19.40;99.90
12682;DHT22;6405;59.208;18.216;2022-08-05T15:21:16;19.40;99.90
12682;DHT22;6405;59.208;18.216;2022-08-05T15:23:43;19.40;99.90
12682;DHT22;6405;59.208;18.216;2022-08-05T15:26:09;19.40;99.90
12682;DHT22;6405;59.208;18.216;2022-08-05T15:28:36;19.40;99.90
12682;DHT22;6405;59.208;18.216;2022-08-05T15:31:03;19.50;99.90
12682;DHT22;6405;59.208;18.216;2022-08-05T15:33:29;19.50;99.90
12682;DHT22;6405;59.208;18.216;2022-08-05T15:35:56;19.60;99.90
12682;DHT22;6405;59.208;18.216;2022-08-05T15:38:24;19.60;99.90
12682;DHT22;6405;59.208;18.216;2022-08-05T15:40:50;19.70;99.90
12682;DHT22;6405;59.208;18.216;2022-08-05T15:43:17;19.80;99.90
12682;DHT22;6405;59.208;18.216;2022-08-05T15:45:43;19.80;99.90
12682;DHT22;6405;59.208;18.216;2022-08-05T15:48:09;19.90;99.90
12682;DHT22;6405;59.208;18.216;2022-08-05T15:50:37;20.00;99.90
12682;DHT22;6405;59.208;18.216;2022-08-05T15:53:04;20.00;99.90
12682;DHT22;6405;59.208;18.216;2022-08-05T15:55:30;20.10;99.90
12682;DHT22;6405;59.208;18.216;2022-08-05T15:57:58;20.20;99.90
12682;DHT22;6405;59.208;18.216;2022-08-05T16:00:24;20.30;99.90
12682;DHT22;6405;59.208;18.216;2022-08-05T16:02:51;20.30;99.90
12682;DHT22;6405;59.208;18.216;2022-08-05T16:05:17;20.20;99.90
12682;DHT22;6405;59.208;18.216;2022-08-05T16:07:43;20.20;99.90
12682;DHT22;6405;59.208;18.216;2022-08-05T16:10:09;20.20;99.90
12682;DHT22;6405;59.208;18.216;2022-08-05T16:12:35;20.10;99.90
12682;DHT22;6405;59.208;18.216;2022-08-05T16:15:03;20.10;99.90